Oyhat, Washington
Current Conditions -  °F | °C
As of 5:53 AM on Wednesday 28 Jan 2015 (Local Time) from KHQM Reporting Station
Haze Haze  
Wind Chill: -1°   Ceiling: Unl
Heat Index:   Visibility: 4mi
Dew Point:   Wind: 5mph
Humidity: 96%   Direction: 50°NE
Pressure: 30.32"   Gusts: NA
Location:  47.0202°N, 123.878°W
Report Text: KHQM 281353Z AUTO 05004KT 4SM BR CLR 02/01 A3032 RMK AO2 SLP270 T00170011 $
Loading
Personal Weather Stations






























Interactive Weather Map New forecast layout! Learn more

10-Day Weather Forecast

Advertisements
Track Severe Weather on mobile